Terminal Aerodrome Forecast
Issued by NWS Sioux Falls, SD

Home | Current Version | Previous Version | Text Only | Print | Product List | Glossary On
Versions: 1 2 3 4 5 6 7 8 9 10 11 12 13 14
000
FTUS43 KFSD 011137
TAFFSD
TAF
KFSD 011137Z 0112/0212 30006KT P6SM SCT100
     FM011600 29009KT P6SM SCT040
     FM011900 29009KT P6SM BKN060
     FM020000 27005KT P6SM SCT120=

USA.gov is the U.S. government's official web portal to all federal, state and local government web resources and services.